YBS YGLB-YSSY
Flight info
| Callsign | YBS |
|---|---|
| Flight time | 0h 41m |
| Altitude | 7000 |
| Route | YGLB YSHL YSSY |
| Aircraft | DA42/L-V/N |
Departure
| Time | 2026-04-30 10:20 |
|---|---|
| Airport | Goulburn Airport (YGLB) |
Arrival
| Time | 2026-04-30 11:01 |
|---|---|
| Airport | Sydney Kingsford Smith International Airport (YSSY) |
| Time | Latitude | Longitude | Altitude | Speed | Heading |
|---|---|---|---|---|---|
| 2026-04-30 10:17 | -34.80618 | 149.73322 | 2093 ft | 0 kts | 119° |
| 2026-04-30 10:17 | -34.80626 | 149.73311 | 2093 ft | 3 kts | 283° |
| 2026-04-30 10:17 | -34.80618 | 149.73287 | 2095 ft | 3 kts | 290° |
| 2026-04-30 10:18 | -34.80614 | 149.73275 | 2095 ft | 0 kts | 303° |
| 2026-04-30 10:18 | -34.80596 | 149.73252 | 2093 ft | 7 kts | 316° |
| 2026-04-30 10:18 | -34.80558 | 149.73202 | 2094 ft | 10 kts | 240° |
| 2026-04-30 10:19 | -34.80577 | 149.73165 | 2096 ft | 1 kts | 227° |
| 2026-04-30 10:19 | -34.80711 | 149.72986 | 2103 ft | 60 kts | 227° |
| 2026-04-30 10:19 | -34.81101 | 149.72479 | 2164 ft | 97 kts | 226° |
| 2026-04-30 10:19 | -34.81575 | 149.71826 | 2416 ft | 105 kts | 229° |
| 2026-04-30 10:20 | -34.82010 | 149.71118 | 2785 ft | 105 kts | 234° |
| 2026-04-30 10:20 | -34.83181 | 149.70136 | 3420 ft | 107 kts | 165° |
| 2026-04-30 10:20 | -34.83744 | 149.70576 | 3747 ft | 92 kts | 105° |
| 2026-04-30 10:21 | -34.83715 | 149.71280 | 4096 ft | 85 kts | 52° |
| 2026-04-30 10:21 | -34.83185 | 149.71625 | 4397 ft | 91 kts | 19° |
| 2026-04-30 10:21 | -34.82588 | 149.71839 | 4737 ft | 94 kts | 19° |
| 2026-04-30 10:21 | -34.81959 | 149.72045 | 5123 ft | 91 kts | 16° |
| 2026-04-30 10:22 | -34.81341 | 149.72241 | 5462 ft | 93 kts | 18° |
| 2026-04-30 10:22 | -34.80873 | 149.72741 | 5807 ft | 93 kts | 67° |
| 2026-04-30 10:22 | -34.80727 | 149.73524 | 6133 ft | 96 kts | 78° |
| 2026-04-30 10:22 | -34.80587 | 149.74325 | 6486 ft | 97 kts | 77° |
| 2026-04-30 10:23 | -34.80418 | 149.75185 | 6696 ft | 113 kts | 76° |
| 2026-04-30 10:23 | -34.80221 | 149.76119 | 7021 ft | 114 kts | 75° |
| 2026-04-30 10:23 | -34.80014 | 149.77049 | 7353 ft | 114 kts | 75° |
| 2026-04-30 10:23 | -34.79787 | 149.78055 | 7449 ft | 135 kts | 75° |
| 2026-04-30 10:24 | -34.79522 | 149.79214 | 7453 ft | 151 kts | 74° |
| 2026-04-30 10:24 | -34.79225 | 149.80497 | 7454 ft | 162 kts | 73° |
| 2026-04-30 10:24 | -34.78906 | 149.81837 | 7458 ft | 167 kts | 73° |
| 2026-04-30 10:24 | -34.78585 | 149.83224 | 7458 ft | 172 kts | 74° |
| 2026-04-30 10:25 | -34.78268 | 149.84623 | 7455 ft | 175 kts | 74° |
| 2026-04-30 10:25 | -34.77939 | 149.86064 | 7459 ft | 177 kts | 74° |
| 2026-04-30 10:25 | -34.77605 | 149.87511 | 7462 ft | 177 kts | 74° |
| 2026-04-30 10:25 | -34.77271 | 149.88961 | 7462 ft | 178 kts | 74° |
| 2026-04-30 10:26 | -34.76941 | 149.90389 | 7458 ft | 177 kts | 73° |
| 2026-04-30 10:26 | -34.76607 | 149.91831 | 7459 ft | 176 kts | 73° |
| 2026-04-30 10:26 | -34.76274 | 149.93268 | 7457 ft | 176 kts | 73° |
| 2026-04-30 10:26 | -34.75942 | 149.94702 | 7457 ft | 175 kts | 73° |
| 2026-04-30 10:27 | -34.75612 | 149.96127 | 7461 ft | 175 kts | 73° |
| 2026-04-30 10:27 | -34.75281 | 149.97557 | 7458 ft | 175 kts | 73° |
| 2026-04-30 10:27 | -34.74955 | 149.98964 | 7460 ft | 175 kts | 73° |
| 2026-04-30 10:27 | -34.74624 | 150.00385 | 7459 ft | 175 kts | 73° |
| 2026-04-30 10:28 | -34.74295 | 150.01805 | 7459 ft | 174 kts | 73° |
| 2026-04-30 10:28 | -34.73964 | 150.03226 | 7459 ft | 174 kts | 73° |
| 2026-04-30 10:28 | -34.73636 | 150.04643 | 7458 ft | 174 kts | 73° |
| 2026-04-30 10:28 | -34.73305 | 150.06060 | 7460 ft | 174 kts | 73° |
| 2026-04-30 10:29 | -34.72973 | 150.07482 | 7463 ft | 174 kts | 73° |
| 2026-04-30 10:29 | -34.72648 | 150.08879 | 7460 ft | 174 kts | 73° |
| 2026-04-30 10:29 | -34.72318 | 150.10294 | 7461 ft | 174 kts | 73° |
| 2026-04-30 10:29 | -34.71986 | 150.11719 | 7459 ft | 175 kts | 73° |
| 2026-04-30 10:30 | -34.71654 | 150.13142 | 7458 ft | 175 kts | 73° |
| 2026-04-30 10:30 | -34.71322 | 150.14564 | 7461 ft | 175 kts | 73° |
| 2026-04-30 10:30 | -34.70989 | 150.15990 | 7461 ft | 174 kts | 73° |
| 2026-04-30 10:30 | -34.70660 | 150.17395 | 7457 ft | 174 kts | 73° |
| 2026-04-30 10:31 | -34.70327 | 150.18816 | 7456 ft | 176 kts | 73° |
| 2026-04-30 10:31 | -34.69992 | 150.20246 | 7457 ft | 176 kts | 73° |
| 2026-04-30 10:31 | -34.69658 | 150.21678 | 7457 ft | 176 kts | 73° |
| 2026-04-30 10:31 | -34.69324 | 150.23110 | 7461 ft | 176 kts | 73° |
| 2026-04-30 10:32 | -34.68986 | 150.24549 | 7459 ft | 176 kts | 73° |
| 2026-04-30 10:32 | -34.68648 | 150.25987 | 7460 ft | 177 kts | 73° |
| 2026-04-30 10:32 | -34.68314 | 150.27408 | 7458 ft | 177 kts | 73° |
| 2026-04-30 10:32 | -34.67976 | 150.28847 | 7460 ft | 177 kts | 72° |
| 2026-04-30 10:33 | -34.67638 | 150.30287 | 7459 ft | 176 kts | 73° |
| 2026-04-30 10:33 | -34.67301 | 150.31720 | 7453 ft | 176 kts | 73° |
| 2026-04-30 10:33 | -34.66965 | 150.33152 | 7457 ft | 176 kts | 72° |
| 2026-04-30 10:33 | -34.66631 | 150.34563 | 7457 ft | 177 kts | 73° |
| 2026-04-30 10:34 | -34.66293 | 150.35997 | 7456 ft | 176 kts | 72° |
| 2026-04-30 10:34 | -34.65955 | 150.37434 | 7455 ft | 176 kts | 72° |
| 2026-04-30 10:34 | -34.65617 | 150.38867 | 7457 ft | 176 kts | 72° |
| 2026-04-30 10:34 | -34.65279 | 150.40301 | 7458 ft | 176 kts | 72° |
| 2026-04-30 10:35 | -34.64940 | 150.41737 | 7458 ft | 176 kts | 72° |
| 2026-04-30 10:35 | -34.64605 | 150.43157 | 7454 ft | 177 kts | 72° |
| 2026-04-30 10:35 | -34.64265 | 150.44590 | 7450 ft | 176 kts | 72° |
| 2026-04-30 10:35 | -34.63928 | 150.46017 | 7450 ft | 176 kts | 72° |
| 2026-04-30 10:36 | -34.63590 | 150.47448 | 7452 ft | 176 kts | 72° |
| 2026-04-30 10:36 | -34.63256 | 150.48857 | 7451 ft | 175 kts | 72° |
| 2026-04-30 10:36 | -34.62918 | 150.50285 | 7453 ft | 175 kts | 72° |
| 2026-04-30 10:36 | -34.62580 | 150.51712 | 7452 ft | 176 kts | 72° |
| 2026-04-30 10:37 | -34.62242 | 150.53137 | 7455 ft | 175 kts | 72° |
| 2026-04-30 10:37 | -34.61903 | 150.54562 | 7429 ft | 176 kts | 72° |
| 2026-04-30 10:37 | -34.61558 | 150.56014 | 7310 ft | 181 kts | 72° |
| 2026-04-30 10:37 | -34.61211 | 150.57476 | 7195 ft | 183 kts | 72° |
| 2026-04-30 10:38 | -34.60857 | 150.58971 | 7070 ft | 184 kts | 72° |
| 2026-04-30 10:38 | -34.60501 | 150.60466 | 7016 ft | 182 kts | 72° |
| 2026-04-30 10:38 | -34.60152 | 150.61929 | 7012 ft | 179 kts | 72° |
| 2026-04-30 10:38 | -34.59808 | 150.63370 | 7015 ft | 176 kts | 72° |
| 2026-04-30 10:39 | -34.59472 | 150.64781 | 7014 ft | 175 kts | 72° |
| 2026-04-30 10:39 | -34.59133 | 150.66202 | 7009 ft | 175 kts | 72° |
| 2026-04-30 10:39 | -34.58794 | 150.67623 | 7010 ft | 176 kts | 72° |
| 2026-04-30 10:39 | -34.58454 | 150.69051 | 7006 ft | 176 kts | 72° |
| 2026-04-30 10:40 | -34.58114 | 150.70477 | 7013 ft | 176 kts | 72° |
| 2026-04-30 10:40 | -34.57773 | 150.71901 | 7011 ft | 176 kts | 72° |
| 2026-04-30 10:40 | -34.57434 | 150.73321 | 7006 ft | 175 kts | 72° |
| 2026-04-30 10:40 | -34.57095 | 150.74738 | 7006 ft | 174 kts | 72° |
| 2026-04-30 10:41 | -34.56755 | 150.76153 | 7001 ft | 174 kts | 72° |
| 2026-04-30 10:41 | -34.56408 | 150.77546 | 6997 ft | 174 kts | 68° |
| 2026-04-30 10:41 | -34.55777 | 150.78787 | 6999 ft | 173 kts | 47° |
| 2026-04-30 10:41 | -34.54828 | 150.79673 | 6999 ft | 172 kts | 28° |
| 2026-04-30 10:42 | -34.53851 | 150.80476 | 6999 ft | 172 kts | 44° |
| 2026-04-30 10:42 | -34.53031 | 150.81533 | 6997 ft | 172 kts | 46° |
| 2026-04-30 10:42 | -34.52186 | 150.82590 | 6997 ft | 172 kts | 45° |
| 2026-04-30 10:42 | -34.51342 | 150.83594 | 6996 ft | 172 kts | 44° |
| 2026-04-30 10:43 | -34.50480 | 150.84606 | 6994 ft | 172 kts | 44° |
| 2026-04-30 10:43 | -34.49616 | 150.85619 | 6996 ft | 172 kts | 44° |
| 2026-04-30 10:43 | -34.49046 | 150.86290 | 6994 ft | 172 kts | 44° |
| 2026-04-30 10:43 | -34.47905 | 150.87630 | 6993 ft | 172 kts | 44° |
| 2026-04-30 10:44 | -34.47032 | 150.88656 | 6991 ft | 172 kts | 44° |
| 2026-04-30 10:44 | -34.46181 | 150.89655 | 6993 ft | 172 kts | 44° |
| 2026-04-30 10:44 | -34.45317 | 150.90669 | 6995 ft | 172 kts | 44° |
| 2026-04-30 10:44 | -34.44456 | 150.91676 | 6996 ft | 172 kts | 44° |
| 2026-04-30 10:45 | -34.43594 | 150.92684 | 6996 ft | 172 kts | 44° |
| 2026-04-30 10:45 | -34.42743 | 150.93678 | 6993 ft | 172 kts | 44° |
| 2026-04-30 10:45 | -34.41901 | 150.94714 | 6995 ft | 172 kts | 46° |
| 2026-04-30 10:45 | -34.41083 | 150.95776 | 6995 ft | 172 kts | 46° |
| 2026-04-30 10:46 | -34.40256 | 150.96831 | 6993 ft | 172 kts | 46° |
| 2026-04-30 10:46 | -34.39433 | 150.97873 | 6994 ft | 172 kts | 46° |
| 2026-04-30 10:46 | -34.38600 | 150.98926 | 6985 ft | 172 kts | 46° |
| 2026-04-30 10:46 | -34.37760 | 150.99985 | 6880 ft | 177 kts | 46° |
| 2026-04-30 10:47 | -34.36898 | 151.01074 | 6743 ft | 179 kts | 46° |
| 2026-04-30 10:47 | -34.36037 | 151.02162 | 6623 ft | 178 kts | 46° |
| 2026-04-30 10:47 | -34.35196 | 151.03222 | 6496 ft | 175 kts | 46° |
| 2026-04-30 10:47 | -34.34360 | 151.04275 | 6363 ft | 172 kts | 46° |
| 2026-04-30 10:48 | -34.33537 | 151.05313 | 6238 ft | 170 kts | 46° |
| 2026-04-30 10:48 | -34.32718 | 151.06343 | 6113 ft | 169 kts | 46° |
| 2026-04-30 10:48 | -34.32179 | 151.07022 | 6027 ft | 168 kts | 46° |
| 2026-04-30 10:48 | -34.31102 | 151.08379 | 5860 ft | 168 kts | 46° |
| 2026-04-30 10:49 | -34.30552 | 151.09072 | 5777 ft | 168 kts | 46° |
| 2026-04-30 10:49 | -34.29743 | 151.10091 | 5653 ft | 168 kts | 46° |
| 2026-04-30 10:49 | -34.28943 | 151.11097 | 5528 ft | 167 kts | 46° |
| 2026-04-30 10:49 | -34.28137 | 151.12112 | 5403 ft | 167 kts | 46° |
| 2026-04-30 10:50 | -34.27334 | 151.13122 | 5281 ft | 166 kts | 45° |
| 2026-04-30 10:50 | -34.26533 | 151.14129 | 5156 ft | 166 kts | 46° |
| 2026-04-30 10:50 | -34.25731 | 151.15138 | 5026 ft | 166 kts | 45° |
| 2026-04-30 10:50 | -34.24927 | 151.16147 | 4898 ft | 166 kts | 46° |
| 2026-04-30 10:51 | -34.24151 | 151.17126 | 4674 ft | 147 kts | 47° |
| 2026-04-30 10:51 | -34.23528 | 151.17916 | 4245 ft | 119 kts | 46° |
| 2026-04-30 10:51 | -34.22980 | 151.18602 | 3667 ft | 113 kts | 46° |
| 2026-04-30 10:51 | -34.22439 | 151.19278 | 3069 ft | 110 kts | 46° |
| 2026-04-30 10:52 | -34.21900 | 151.19941 | 3010 ft | 110 kts | 46° |
| 2026-04-30 10:52 | -34.21378 | 151.20596 | 2996 ft | 106 kts | 46° |
| 2026-04-30 10:52 | -34.20857 | 151.21216 | 2983 ft | 105 kts | 44° |
| 2026-04-30 10:52 | -34.20348 | 151.21852 | 2989 ft | 105 kts | 46° |
| 2026-04-30 10:53 | -34.19849 | 151.22494 | 2987 ft | 104 kts | 47° |
| 2026-04-30 10:53 | -34.19348 | 151.23134 | 2986 ft | 104 kts | 47° |
| 2026-04-30 10:53 | -34.18851 | 151.23767 | 2989 ft | 103 kts | 46° |
| 2026-04-30 10:53 | -34.18350 | 151.24363 | 2986 ft | 102 kts | 38° |
| 2026-04-30 10:54 | -34.17690 | 151.24666 | 2987 ft | 103 kts | 9° |
| 2026-04-30 10:54 | -34.16972 | 151.24559 | 2989 ft | 104 kts | 353° |
| 2026-04-30 10:54 | -34.16260 | 151.24377 | 2988 ft | 105 kts | 352° |
| 2026-04-30 10:54 | -34.15547 | 151.24184 | 2996 ft | 105 kts | 351° |
| 2026-04-30 10:55 | -34.14828 | 151.23976 | 2969 ft | 108 kts | 349° |
| 2026-04-30 10:55 | -34.14113 | 151.23764 | 2984 ft | 107 kts | 351° |
| 2026-04-30 10:55 | -34.13384 | 151.23572 | 2995 ft | 108 kts | 351° |
| 2026-04-30 10:55 | -34.12647 | 151.23387 | 3000 ft | 108 kts | 351° |
| 2026-04-30 10:56 | -34.11910 | 151.23193 | 3002 ft | 109 kts | 352° |
| 2026-04-30 10:56 | -34.11167 | 151.23007 | 2877 ft | 107 kts | 353° |
| 2026-04-30 10:56 | -34.10441 | 151.22833 | 2710 ft | 107 kts | 352° |
| 2026-04-30 10:56 | -34.09706 | 151.22646 | 2532 ft | 107 kts | 352° |
| 2026-04-30 10:57 | -34.08989 | 151.22461 | 2379 ft | 106 kts | 351° |
| 2026-04-30 10:57 | -34.08274 | 151.22268 | 2241 ft | 105 kts | 352° |
| 2026-04-30 10:57 | -34.07556 | 151.22090 | 2078 ft | 107 kts | 352° |
| 2026-04-30 10:57 | -34.06825 | 151.21912 | 1914 ft | 107 kts | 353° |
| 2026-04-30 10:58 | -34.06090 | 151.21730 | 1754 ft | 107 kts | 353° |
| 2026-04-30 10:58 | -34.05378 | 151.21558 | 1630 ft | 103 kts | 353° |
| 2026-04-30 10:58 | -34.04679 | 151.21365 | 1504 ft | 103 kts | 349° |
| 2026-04-30 10:58 | -34.03965 | 151.21170 | 1360 ft | 106 kts | 352° |
| 2026-04-30 10:59 | -34.03244 | 151.20983 | 1246 ft | 106 kts | 352° |
| 2026-04-30 10:59 | -34.02523 | 151.20794 | 1105 ft | 106 kts | 351° |
| 2026-04-30 10:59 | -34.01808 | 151.20595 | 983 ft | 105 kts | 350° |
| 2026-04-30 10:59 | -34.01095 | 151.20404 | 802 ft | 106 kts | 352° |
| 2026-04-30 11:00 | -34.00382 | 151.20232 | 675 ft | 101 kts | 352° |
| 2026-04-30 11:00 | -33.99678 | 151.20061 | 503 ft | 104 kts | 349° |
| 2026-04-30 11:00 | -33.98975 | 151.19849 | 405 ft | 104 kts | 349° |
| 2026-04-30 11:00 | -33.98268 | 151.19678 | 318 ft | 104 kts | 350° |
| 2026-04-30 11:01 | -33.97559 | 151.19501 | 184 ft | 107 kts | 350° |
| 2026-04-30 11:01 | -33.96836 | 151.19316 | 22 ft | 102 kts | 350° |
| 2026-04-30 11:01 | -33.96294 | 151.19176 | 18 ft | 60 kts | 349° |
| 2026-04-30 11:01 | -33.95957 | 151.19080 | 23 ft | 41 kts | 340° |
| 2026-04-30 11:02 | -33.95764 | 151.18918 | 20 ft | 29 kts | 317° |
| 2026-04-30 11:02 | -33.95625 | 151.18807 | 18 ft | 21 kts | 339° |
| 2026-04-30 11:02 | -33.95502 | 151.18770 | 16 ft | 15 kts | 347° |
| 2026-04-30 11:02 | -33.95414 | 151.18746 | 16 ft | 10 kts | 345° |
| 2026-04-30 11:03 | -33.95346 | 151.18730 | 18 ft | 9 kts | 349° |
| 2026-04-30 11:03 | -33.95273 | 151.18698 | 19 ft | 13 kts | 328° |
| 2026-04-30 11:03 | -33.95165 | 151.18597 | 18 ft | 23 kts | 315° |
| 2026-04-30 11:04 | -33.95144 | 151.18294 | 18 ft | 18 kts | 258° |
| 2026-04-30 11:04 | -33.95168 | 151.18162 | 20 ft | 13 kts | 255° |
| 2026-04-30 11:04 | -33.95174 | 151.18131 | 20 ft | 0 kts | 257° |
| 2026-04-30 11:05 | -33.95174 | 151.18130 | 20 ft | 1 kts | 256° |
| 2026-04-30 11:05 | -33.95185 | 151.18069 | 20 ft | 15 kts | 258° |
| 2026-04-30 11:05 | -33.95207 | 151.17947 | 18 ft | 10 kts | 254° |
| 2026-04-30 11:05 | -33.95205 | 151.17914 | 18 ft | 2 kts | 20° |
| 2026-04-30 11:06 | -33.95159 | 151.17947 | 19 ft | 15 kts | 12° |
| 2026-04-30 11:06 | -33.95012 | 151.17921 | 18 ft | 27 kts | 350° |
| 2026-04-30 11:06 | -33.94852 | 151.17879 | 16 ft | 21 kts | 346° |
| 2026-04-30 11:06 | -33.94722 | 151.17849 | 16 ft | 19 kts | 357° |
| 2026-04-30 11:07 | -33.94654 | 151.17831 | 16 ft | 2 kts | 332° |
| 2026-04-30 11:07 | -33.94647 | 151.17828 | 16 ft | 0 kts | 347° |
| 2026-04-30 11:08 | -33.94547 | 151.17801 | 17 ft | 32 kts | 350° |
| 2026-04-30 11:08 | -33.94320 | 151.17734 | 16 ft | 31 kts | 347° |
| 2026-04-30 11:09 | -33.94105 | 151.17665 | 16 ft | 32 kts | 346° |
| 2026-04-30 11:09 | -33.93905 | 151.17623 | 13 ft | 25 kts | 22° |
| 2026-04-30 11:09 | -33.93838 | 151.17796 | 16 ft | 20 kts | 75° |
| 2026-04-30 11:09 | -33.93798 | 151.17957 | 23 ft | 22 kts | 73° |
| 2026-04-30 11:10 | -33.93741 | 151.18201 | 25 ft | 30 kts | 73° |
| 2026-04-30 11:10 | -33.93681 | 151.18385 | 25 ft | 18 kts | 17° |
| 2026-04-30 11:10 | -33.93622 | 151.18350 | 25 ft | 0 kts | 271° |